Huvudsida
METAR-TAF:

METAR-TAF

Flygplatser :

Guaratinguetá, São Paulo, Brasilien

latitud: 22-47S, longitud: 045-12W, höjd: 537 m

Aktuellt väderrapport

Denna rapport gjordes för 13 timmar och 53 minuter sedan, klockan 20:00 UTC
Vind 4 kt från nordost
Temperatur 23°C
Fuktighet 53%
Tryck 1017 hPa
Sikt 10 km eller mer
Inga moln under 1 500 m eller inga cumulonimbus

METAR: SBGW 262000Z 04004KT CAVOK 23/13 Q1017

Tid: 06:53 (09:53 UTC)

Väderprognos

Denna rapport gjordes för 6 timmar och 53 minuter sedan, klockan 03:00 UTC
Prognos gäller från 27 kl. 06 UTC till 27 kl. 18 UTC
Vind 6 kt från syd
Sikt 10 km eller mer
Få moln på en höjd av 3000 ft
Sannolikhet 40%
från 27 kl. 08 UTC till 27 kl. 11 UTC
Sikt: 0500 m
på en höjd av 200 ft
dimma

TAF: SBGW 270300Z 2706/2718 17006KT 9999 FEW030 TN12/2708Z TX26/2718Z PROB40 2708/2711 0500 FG VV002 RMK PDJ

Aktuella väderrapporter och prognoser från 4000 flygplatser (METAR- och TAF-rapporter).

De tillgängliga stationerna syns som gula och röda prickar på kartan.

För musen över prickarna för att se namnen på stationerna.

Klicka sedan för att få väderrapporter och prognoser.

För att ändra kartan: Klicka på de gröna knapparna med ett svart kors på för att zooma in; den gröna knappen med ett streck på för att zooma ut; eller på de gröna pilarna för angränsande kartor.


METAR-TAF: